createdAt,value
2022-08-11T00:01:21.121Z,16.90
2022-08-11T00:03:53.768Z,16.84
2022-08-11T00:06:28.171Z,16.92
2022-08-11T00:08:55.980Z,16.81
2022-08-11T00:11:32.573Z,16.86
2022-08-11T00:14:00.274Z,16.87
2022-08-11T00:16:27.792Z,16.69
2022-08-11T00:18:58.963Z,16.80
2022-08-11T00:22:01.989Z,16.78
2022-08-11T00:24:13.420Z,16.69
2022-08-11T00:26:39.855Z,16.77
2022-08-11T00:29:10.935Z,16.75
2022-08-11T00:31:38.599Z,16.72
2022-08-11T00:34:11.676Z,16.83
2022-08-11T00:37:03.241Z,16.81
2022-08-11T00:39:34.146Z,16.68
2022-08-11T00:42:40.475Z,16.62
2022-08-11T00:45:13.674Z,16.59
2022-08-11T00:48:01.273Z,16.59
2022-08-11T00:50:55.185Z,16.64
2022-08-11T00:54:03.411Z,16.58
2022-08-11T00:56:41.798Z,16.48
2022-08-11T00:59:35.465Z,16.38
2022-08-11T01:02:24.140Z,16.46
2022-08-11T01:05:28.031Z,16.51
2022-08-11T01:08:15.974Z,16.47
2022-08-11T01:10:59.329Z,16.49
2022-08-11T01:13:50.892Z,16.53
2022-08-11T01:16:29.402Z,16.49
2022-08-11T01:18:55.767Z,16.52
2022-08-11T01:21:40.906Z,16.35
2022-08-11T01:24:50.208Z,16.22
2022-08-11T01:27:55.523Z,16.23
2022-08-11T01:30:43.775Z,16.23
2022-08-11T01:33:38.543Z,16.22
2022-08-11T01:36:28.740Z,16.17
2022-08-11T01:39:14.035Z,16.23
2022-08-11T01:42:18.811Z,16.18
2022-08-11T01:45:03.385Z,16.19
2022-08-11T01:48:04.571Z,16.06
2022-08-11T01:50:30.980Z,16.09
2022-08-11T01:53:31.547Z,16.11
2022-08-11T01:56:30.379Z,16.16
2022-08-11T01:59:24.388Z,16.20
2022-08-11T02:02:48.576Z,16.21
2022-08-11T02:05:23.273Z,16.09
2022-08-11T02:08:11.813Z,15.97
2022-08-11T02:11:05.515Z,16.02
2022-08-11T02:13:52.112Z,16.12
2022-08-11T02:16:24.507Z,16.06
2022-08-11T02:19:19.555Z,15.97
2022-08-11T02:22:13.914Z,15.95
2022-08-11T02:25:07.858Z,15.83
2022-08-11T02:27:44.179Z,15.92
2022-08-11T02:30:15.176Z,15.88
2022-08-11T02:33:27.396Z,15.82
2022-08-11T02:36:06.332Z,15.79
2022-08-11T02:39:03.390Z,15.83
2022-08-11T02:42:00.368Z,15.78
2022-08-11T02:44:39.880Z,15.77
2022-08-11T02:47:18.123Z,15.81
2022-08-11T02:49:59.712Z,15.74
2022-08-11T02:52:47.291Z,15.69
2022-08-11T02:55:56.523Z,15.64
2022-08-11T02:58:36.577Z,15.60
2022-08-11T03:01:28.333Z,15.55
2022-08-11T03:04:00.547Z,15.62
2022-08-11T03:06:39.387Z,15.66
2022-08-11T03:09:22.409Z,15.62
2022-08-11T03:12:34.384Z,15.71
2022-08-11T03:15:41.196Z,15.61
2022-08-11T03:18:48.797Z,15.63
2022-08-11T03:21:22.048Z,15.60
2022-08-11T03:24:06.739Z,15.62
2022-08-11T03:26:47.293Z,15.56
2022-08-11T03:29:31.165Z,15.55
2022-08-11T03:32:04.575Z,15.52
2022-08-11T03:34:36.707Z,15.47
2022-08-11T03:37:51.818Z,15.49
2022-08-11T03:40:38.119Z,15.43
2022-08-11T03:43:18.010Z,15.44
2022-08-11T03:45:57.255Z,15.40
2022-08-11T03:48:43.040Z,15.38
2022-08-11T03:51:25.502Z,15.55
2022-08-11T03:54:06.001Z,15.45
2022-08-11T03:57:00.445Z,15.37
2022-08-11T04:00:03.845Z,15.36
2022-08-11T04:03:21.040Z,15.26
2022-08-11T04:06:09.414Z,15.26
2022-08-11T04:08:57.708Z,15.33
2022-08-11T04:11:45.895Z,15.31
2022-08-11T04:14:45.574Z,15.32
2022-08-11T04:17:48.516Z,15.26
2022-08-11T04:20:49.461Z,15.25
2022-08-11T04:24:13.058Z,15.27
2022-08-11T04:27:01.929Z,15.26
2022-08-11T04:30:05.809Z,15.25
2022-08-11T04:32:44.192Z,15.24
2022-08-11T04:35:19.972Z,15.29
2022-08-11T04:38:19.172Z,15.34
2022-08-11T04:41:19.796Z,15.29
2022-08-11T04:44:07.964Z,15.31
2022-08-11T04:47:06.447Z,15.25
2022-08-11T04:50:19.757Z,15.37
2022-08-11T04:53:38.198Z,15.33
2022-08-11T04:56:39.477Z,15.52
2022-08-11T04:59:45.616Z,15.49
2022-08-11T05:02:32.903Z,15.51
2022-08-11T05:05:32.882Z,15.55
2022-08-11T05:08:24.413Z,15.64
2022-08-11T05:11:12.711Z,15.75
2022-08-11T05:14:06.334Z,15.75
2022-08-11T05:17:00.772Z,15.85
2022-08-11T05:19:46.133Z,15.95
2022-08-11T05:22:33.278Z,15.90
2022-08-11T05:26:43.728Z,16.05
2022-08-11T05:28:55.566Z,16.03
2022-08-11T05:32:04.679Z,16.08
2022-08-11T05:34:56.844Z,16.21
2022-08-11T05:37:33.399Z,16.38
2022-08-11T05:40:30.253Z,16.46
2022-08-11T05:43:36.084Z,16.59
2022-08-11T05:46:25.568Z,16.74
2022-08-11T05:49:11.448Z,16.99
2022-08-11T05:52:04.871Z,17.19
2022-08-11T05:54:50.945Z,17.25
2022-08-11T05:57:43.865Z,17.48
2022-08-11T06:00:14.551Z,17.59
2022-08-11T06:02:49.117Z,17.78
2022-08-11T06:05:16.431Z,17.86
2022-08-11T06:07:48.797Z,18.01
2022-08-11T06:10:33.225Z,18.11
2022-08-11T06:13:01.156Z,18.31
2022-08-11T06:15:30.017Z,18.36
2022-08-11T06:17:58.861Z,18.33
2022-08-11T06:20:26.049Z,18.57
2022-08-11T06:22:58.774Z,18.70
2022-08-11T06:25:35.833Z,18.83
2022-08-11T06:28:07.517Z,18.96
2022-08-11T06:30:45.701Z,19.27
2022-08-11T06:33:19.475Z,19.97
2022-08-11T06:36:02.667Z,20.57
2022-08-11T06:38:53.328Z,20.90
2022-08-11T06:41:32.317Z,21.52
2022-08-11T06:44:16.604Z,21.52
2022-08-11T06:46:55.892Z,22.08
2022-08-11T06:49:51.049Z,22.31
2022-08-11T06:52:35.089Z,22.53
2022-08-11T06:55:57.479Z,22.74
2022-08-11T06:58:16.599Z,23.21
2022-08-11T07:00:45.567Z,23.68
2022-08-11T07:03:16.657Z,24.21
2022-08-11T07:05:54.110Z,24.17
2022-08-11T07:09:04.301Z,24.79
2022-08-11T07:12:14.232Z,25.54
2022-08-11T07:15:08.511Z,25.32
2022-08-11T07:17:42.611Z,25.21
2022-08-11T07:20:29.305Z,25.15
2022-08-11T07:23:17.812Z,25.71
2022-08-11T07:26:08.846Z,25.78
2022-08-11T07:28:58.557Z,26.53
2022-08-11T07:31:46.231Z,25.97
2022-08-11T07:34:21.475Z,25.47
2022-08-11T07:36:53.498Z,26.35
2022-08-11T07:39:25.921Z,27.30
2022-08-11T07:41:54.529Z,26.65
2022-08-11T07:44:22.365Z,26.73
2022-08-11T07:47:08.848Z,27.06
2022-08-11T07:49:56.083Z,26.85
2022-08-11T07:52:33.629Z,27.67
2022-08-11T07:55:03.251Z,28.56
2022-08-11T07:58:14.277Z,28.11
2022-08-11T08:01:02.647Z,28.18
2022-08-11T08:03:53.874Z,28.03
2022-08-11T08:06:41.380Z,27.84
2022-08-11T08:09:27.667Z,27.34
2022-08-11T08:12:14.036Z,27.43
2022-08-11T08:14:59.292Z,28.57
2022-08-11T08:17:46.538Z,28.18
2022-08-11T08:20:38.180Z,28.31
2022-08-11T08:23:06.178Z,28.03
2022-08-11T08:25:35.119Z,28.79
2022-08-11T08:28:07.356Z,29.00
2022-08-11T08:30:50.989Z,28.75
2022-08-11T08:33:30.376Z,29.04
2022-08-11T08:36:16.263Z,28.91
2022-08-11T08:38:48.311Z,30.05
2022-08-11T08:41:21.451Z,29.59
2022-08-11T08:43:51.888Z,29.26
2022-08-11T08:46:22.361Z,30.06
2022-08-11T08:48:50.426Z,29.45
2022-08-11T08:52:01.346Z,29.84
2022-08-11T08:54:33.956Z,29.42
2022-08-11T08:57:04.979Z,29.36
2022-08-11T08:59:47.388Z,29.88
2022-08-11T09:02:17.842Z,29.78
2022-08-11T09:04:46.650Z,30.07
2022-08-11T09:07:16.473Z,30.46
2022-08-11T09:09:49.019Z,30.47
2022-08-11T09:12:17.402Z,30.04
2022-08-11T09:15:05.711Z,30.83
2022-08-11T09:18:01.324Z,30.82
2022-08-11T09:20:29.352Z,31.20
2022-08-11T09:26:31.390Z,31.16
2022-08-11T09:28:59.278Z,31.34
2022-08-11T09:31:26.756Z,31.12
2022-08-11T09:33:55.469Z,31.21
2022-08-11T09:36:41.533Z,31.27
2022-08-11T09:39:30.809Z,31.52
2022-08-11T09:42:03.439Z,31.48
2022-08-11T09:44:48.814Z,31.63
2022-08-11T09:47:31.771Z,31.64
2022-08-11T09:50:01.035Z,31.56
2022-08-11T09:52:30.712Z,31.47
2022-08-11T09:54:57.447Z,31.65
2022-08-11T09:57:44.477Z,31.54
2022-08-11T10:00:14.202Z,31.82
2022-08-11T10:02:47.218Z,31.79
2022-08-11T10:05:36.009Z,31.69
2022-08-11T10:08:04.373Z,32.33
2022-08-11T10:10:35.802Z,31.79
2022-08-11T10:14:30.792Z,31.70
2022-08-11T10:16:00.101Z,31.90
2022-08-11T10:18:49.251Z,31.75
2022-08-11T10:21:28.133Z,32.69
2022-08-11T10:24:15.315Z,32.48
2022-08-11T10:26:53.597Z,32.39
2022-08-11T10:29:49.623Z,32.53
2022-08-11T10:32:57.634Z,32.37
2022-08-11T10:35:30.524Z,32.30
2022-08-11T10:38:15.835Z,32.76
2022-08-11T10:40:46.900Z,32.68
2022-08-11T10:44:03.372Z,32.69
2022-08-11T10:46:29.733Z,33.32
2022-08-11T10:48:57.931Z,33.01
2022-08-11T10:51:50.571Z,33.18
2022-08-11T10:54:39.287Z,33.34
2022-08-11T10:57:24.743Z,32.88
2022-08-11T10:59:52.220Z,33.05
2022-08-11T11:02:19.867Z,33.35
2022-08-11T11:05:01.548Z,33.26
2022-08-11T11:07:56.879Z,33.63
2022-08-11T11:10:23.481Z,33.66
2022-08-11T11:13:15.917Z,33.35
2022-08-11T11:16:05.379Z,33.53
2022-08-11T11:18:36.578Z,33.41
2022-08-11T11:21:07.355Z,33.79
2022-08-11T11:23:56.104Z,33.45
2022-08-11T11:26:57.990Z,33.81
2022-08-11T11:29:53.299Z,34.09
2022-08-11T11:32:35.130Z,33.74
2022-08-11T11:35:16.873Z,33.99
2022-08-11T11:38:03.730Z,34.32
2022-08-11T11:40:32.548Z,34.27
2022-08-11T11:43:00.206Z,34.38
2022-08-11T11:45:26.964Z,34.11
2022-08-11T11:47:55.050Z,34.00
2022-08-11T11:50:36.514Z,33.74
2022-08-11T11:53:07.939Z,34.08
2022-08-11T11:55:35.837Z,33.93
2022-08-11T11:58:22.405Z,34.16
2022-08-11T12:01:09.333Z,34.82
2022-08-11T12:03:37.864Z,34.25
2022-08-11T12:06:04.751Z,34.16
2022-08-11T12:08:31.944Z,34.96
2022-08-11T12:11:20.331Z,34.59
2022-08-11T12:13:51.806Z,34.83
2022-08-11T12:16:35.528Z,34.72
2022-08-11T12:19:11.682Z,34.74
2022-08-11T12:22:00.851Z,34.94
2022-08-11T12:24:48.122Z,34.78
2022-08-11T12:27:25.595Z,34.62
2022-08-11T12:30:08.363Z,34.98
2022-08-11T12:32:38.434Z,33.96
2022-08-11T12:35:06.759Z,34.51
2022-08-11T12:38:03.680Z,34.73
2022-08-11T12:44:05.409Z,34.38
2022-08-11T12:46:35.482Z,34.42
2022-08-11T12:49:30.567Z,35.17
2022-08-11T12:52:14.418Z,35.33
2022-08-11T12:54:49.557Z,35.38
2022-08-11T12:57:56.070Z,35.57
2022-08-11T13:00:43.570Z,35.33
2022-08-11T13:03:30.616Z,34.94
2022-08-11T13:05:59.978Z,34.73
2022-08-11T13:08:29.224Z,34.55
2022-08-11T13:11:17.181Z,34.49
2022-08-11T13:13:53.585Z,34.67
2022-08-11T13:16:27.898Z,34.36
2022-08-11T13:18:55.111Z,34.49
2022-08-11T13:21:23.029Z,34.98
2022-08-11T13:24:00.439Z,34.92
2022-08-11T13:26:46.842Z,34.15
2022-08-11T13:29:18.524Z,34.65
2022-08-11T13:31:45.968Z,34.64
2022-08-11T13:34:13.232Z,35.05
2022-08-11T13:36:40.767Z,34.35
2022-08-11T13:39:07.527Z,34.25
2022-08-11T13:41:41.033Z,34.35
2022-08-11T13:44:09.950Z,34.21
2022-08-11T13:46:36.832Z,34.67
2022-08-11T13:49:04.888Z,34.21
2022-08-11T13:51:35.517Z,34.23
2022-08-11T13:54:12.040Z,33.60
2022-08-11T13:56:42.383Z,33.94
2022-08-11T13:59:10.259Z,33.87
2022-08-11T14:02:22.923Z,33.66
2022-08-11T14:04:43.492Z,34.09
2022-08-11T14:07:12.139Z,34.31
2022-08-11T14:09:42.417Z,34.49
2022-08-11T14:12:42.206Z,34.28
2022-08-11T14:15:19.905Z,33.68
2022-08-11T14:17:52.359Z,32.98
2022-08-11T14:20:38.200Z,33.38
2022-08-11T14:23:10.789Z,33.02
2022-08-11T14:26:00.520Z,33.14
2022-08-11T14:28:34.369Z,33.33
2022-08-11T14:31:05.222Z,33.34
2022-08-11T14:34:01.114Z,33.24
2022-08-11T14:36:23.100Z,33.43
2022-08-11T14:38:50.909Z,33.46
2022-08-11T14:41:36.971Z,33.64
2022-08-11T14:44:43.920Z,33.50
2022-08-11T14:47:24.295Z,33.48
2022-08-11T14:50:09.886Z,33.81
2022-08-11T14:52:43.198Z,33.66
2022-08-11T14:55:29.513Z,33.62
2022-08-11T14:57:57.097Z,33.25
2022-08-11T15:00:24.933Z,33.12
2022-08-11T15:03:10.108Z,33.13
2022-08-11T15:05:57.732Z,33.35
2022-08-11T15:08:46.044Z,33.37
2022-08-11T15:11:33.772Z,33.17
2022-08-11T15:14:02.342Z,33.48
2022-08-11T15:16:47.974Z,33.17
2022-08-11T15:19:15.771Z,33.42
2022-08-11T15:22:00.978Z,32.86
2022-08-11T15:24:30.686Z,32.78
2022-08-11T15:27:19.040Z,32.73
2022-08-11T15:30:06.377Z,32.89
2022-08-11T15:32:53.743Z,33.28
2022-08-11T15:35:40.573Z,32.96
2022-08-11T15:38:12.719Z,32.58
2022-08-11T15:41:00.118Z,32.48
2022-08-11T15:43:51.570Z,32.71
2022-08-11T15:46:22.270Z,32.56
2022-08-11T15:49:11.092Z,32.90
2022-08-11T15:51:48.020Z,32.78
2022-08-11T15:54:17.355Z,33.01
2022-08-11T15:56:46.401Z,32.64
2022-08-11T15:59:43.279Z,32.66
2022-08-11T16:02:17.672Z,32.25
2022-08-11T16:04:49.508Z,32.47
2022-08-11T16:07:19.160Z,32.44
2022-08-11T16:09:54.126Z,32.37
2022-08-11T16:12:31.534Z,32.53
2022-08-11T16:15:20.620Z,32.58
2022-08-11T16:17:51.967Z,32.62
2022-08-11T16:20:24.985Z,32.35
2022-08-11T16:23:02.100Z,32.37
2022-08-11T16:27:03.734Z,32.27
2022-08-11T16:28:21.806Z,32.33
2022-08-11T16:30:49.896Z,32.51
2022-08-11T16:33:48.151Z,32.26
2022-08-11T16:36:24.612Z,32.22
2022-08-11T16:38:52.899Z,32.33
2022-08-11T16:41:44.226Z,32.06
2022-08-11T16:44:37.241Z,32.04
2022-08-11T16:47:07.034Z,31.88
2022-08-11T16:49:42.885Z,31.96
2022-08-11T16:52:13.361Z,31.74
2022-08-11T16:54:44.550Z,31.62
2022-08-11T16:57:41.647Z,31.54
2022-08-11T17:00:12.493Z,31.37
2022-08-11T17:03:04.748Z,31.11
2022-08-11T17:05:53.760Z,31.44
2022-08-11T17:09:01.249Z,31.33
2022-08-11T17:11:49.832Z,30.89
2022-08-11T17:14:36.521Z,31.01
2022-08-11T17:17:07.210Z,30.92
2022-08-11T17:20:38.731Z,30.62
2022-08-11T17:22:41.376Z,30.56
2022-08-11T17:25:09.851Z,30.58
2022-08-11T17:27:38.790Z,30.39
2022-08-11T17:30:07.687Z,30.31
2022-08-11T17:33:00.169Z,30.37
2022-08-11T17:35:35.053Z,30.12
2022-08-11T17:38:11.828Z,29.88
2022-08-11T17:41:01.516Z,29.99
2022-08-11T17:43:48.649Z,29.76
2022-08-11T17:46:35.992Z,29.45
2022-08-11T17:49:05.895Z,29.16
2022-08-11T17:51:51.412Z,29.22
2022-08-11T17:54:37.290Z,28.86
2022-08-11T17:57:28.561Z,28.81
2022-08-11T17:59:57.679Z,28.60
2022-08-11T18:03:03.541Z,28.70
2022-08-11T18:05:33.550Z,28.40
2022-08-11T18:08:24.090Z,28.25
2022-08-11T18:11:11.575Z,28.12
2022-08-11T18:14:03.782Z,27.94
2022-08-11T18:16:48.588Z,27.92
2022-08-11T18:19:33.903Z,27.80
2022-08-11T18:22:28.797Z,27.68
2022-08-11T18:25:19.639Z,27.26
2022-08-11T18:28:07.190Z,27.07
2022-08-11T18:31:03.924Z,26.89
2022-08-11T18:34:09.250Z,26.87
2022-08-11T18:36:59.889Z,26.70
2022-08-11T18:39:54.684Z,26.61
2022-08-11T18:42:43.033Z,26.50
2022-08-11T18:45:31.445Z,26.26
2022-08-11T18:48:35.995Z,26.15
2022-08-11T18:51:31.698Z,25.88
2022-08-11T18:54:27.915Z,25.57
2022-08-11T18:57:16.329Z,25.63
2022-08-11T19:00:04.166Z,25.29
2022-08-11T19:02:53.278Z,25.28
2022-08-11T19:06:06.050Z,25.32
2022-08-11T19:08:48.843Z,25.13
2022-08-11T19:11:34.767Z,24.87
2022-08-11T19:14:29.045Z,24.86
2022-08-11T19:17:15.915Z,24.69
2022-08-11T19:20:30.098Z,24.45
2022-08-11T19:23:16.995Z,24.50
2022-08-11T19:26:03.703Z,24.38
2022-08-11T19:28:50.170Z,24.26
2022-08-11T19:31:37.957Z,24.14
2022-08-11T19:34:26.316Z,24.11
2022-08-11T19:37:12.598Z,23.98
2022-08-11T19:40:00.068Z,23.83
2022-08-11T19:42:47.253Z,23.79
2022-08-11T19:45:34.065Z,23.79
2022-08-11T19:48:31.714Z,23.76
2022-08-11T19:51:19.485Z,23.59
2022-08-11T19:54:07.875Z,23.47
2022-08-11T19:56:53.775Z,23.35
2022-08-11T19:59:41.145Z,23.11
2022-08-11T20:02:26.453Z,22.96
2022-08-11T20:05:11.642Z,23.05
2022-08-11T20:07:57.484Z,22.85
2022-08-11T20:10:45.913Z,22.97
2022-08-11T20:13:32.812Z,22.66
2022-08-11T20:16:20.652Z,22.50
2022-08-11T20:19:08.459Z,22.55
2022-08-11T20:21:55.372Z,22.43
2022-08-11T20:24:41.181Z,22.49
2022-08-11T20:27:28.460Z,22.44
2022-08-11T20:30:15.702Z,22.26
2022-08-11T20:33:02.081Z,22.11
2022-08-11T20:35:48.376Z,22.14
2022-08-11T20:38:35.778Z,22.12
2022-08-11T20:41:22.127Z,22.04
2022-08-11T20:44:09.796Z,22.05
2022-08-11T20:46:57.881Z,22.10
2022-08-11T20:49:51.621Z,21.91
2022-08-11T20:52:44.104Z,21.71
2022-08-11T20:55:51.425Z,21.74
2022-08-11T21:01:46.801Z,21.62
2022-08-11T21:04:33.405Z,21.63
2022-08-11T21:07:28.572Z,21.59
2022-08-11T21:10:23.276Z,21.56
2022-08-11T21:13:26.059Z,21.54
2022-08-11T21:16:25.229Z,21.49
2022-08-11T21:19:15.759Z,21.33
2022-08-11T21:22:03.905Z,21.37
2022-08-11T21:24:51.148Z,21.31
2022-08-11T21:27:38.551Z,21.14
2022-08-11T21:30:23.973Z,20.97
2022-08-11T21:33:10.332Z,20.95
2022-08-11T21:35:56.192Z,20.96
2022-08-11T21:38:41.662Z,20.79
2022-08-11T21:41:28.854Z,20.85
2022-08-11T21:44:15.683Z,20.88
2022-08-11T21:47:00.702Z,20.78
2022-08-11T21:49:50.065Z,20.57
2022-08-11T21:52:35.358Z,20.59
2022-08-11T21:55:21.310Z,20.49
2022-08-11T21:58:07.039Z,20.53
2022-08-11T22:00:52.419Z,20.37
2022-08-11T22:03:45.420Z,20.35
2022-08-11T22:06:36.318Z,20.29
2022-08-11T22:09:22.443Z,20.16
2022-08-11T22:12:29.772Z,20.29
2022-08-11T22:15:13.581Z,20.19
2022-08-11T22:17:58.436Z,20.04
2022-08-11T22:20:45.701Z,20.08
2022-08-11T22:23:36.090Z,20.11
2022-08-11T22:26:23.479Z,20.03
2022-08-11T22:29:09.630Z,19.93
2022-08-11T22:31:56.393Z,19.95
2022-08-11T22:34:51.803Z,19.87
2022-08-11T22:37:40.402Z,19.77
2022-08-11T22:40:28.424Z,19.70
2022-08-11T22:43:13.805Z,19.60
2022-08-11T22:45:59.240Z,19.58
2022-08-11T22:48:47.266Z,19.57
2022-08-11T22:51:33.583Z,19.61
2022-08-11T22:54:23.372Z,19.65
2022-08-11T22:57:09.192Z,19.59
2022-08-11T22:59:56.866Z,19.51
2022-08-11T23:02:45.654Z,19.56
2022-08-11T23:05:32.933Z,19.51
2022-08-11T23:08:19.312Z,19.62
2022-08-11T23:11:06.195Z,19.49
2022-08-11T23:13:52.573Z,19.37
2022-08-11T23:16:38.484Z,19.42
2022-08-11T23:20:04.647Z,19.39
2022-08-11T23:22:36.665Z,19.43
2022-08-11T23:25:34.731Z,19.29
2022-08-11T23:28:21.068Z,19.25
2022-08-11T23:31:09.583Z,19.24
2022-08-11T23:33:58.366Z,19.22
2022-08-11T23:36:47.378Z,19.10
2022-08-11T23:39:33.113Z,18.92
2022-08-11T23:42:18.075Z,18.88
2022-08-11T23:45:02.860Z,18.88
2022-08-11T23:47:51.125Z,18.88
2022-08-11T23:50:37.088Z,18.78
2022-08-11T23:53:22.501Z,18.79
2022-08-11T23:56:07.805Z,18.68
2022-08-11T23:58:53.609Z,18.65
